createdAt,value
2023-02-24T05:53:55.081Z,6.00
2023-02-24T05:56:24.667Z,6.00
2023-02-24T05:59:01.148Z,6.01
2023-02-24T06:01:29.700Z,6.01
2023-02-24T06:04:05.059Z,6.02
2023-02-24T06:06:39.594Z,6.03
2023-02-24T06:09:15.108Z,6.04
2023-02-24T06:11:42.773Z,6.05
2023-02-24T06:14:11.598Z,6.06
2023-02-24T06:16:41.610Z,6.07
2023-02-24T06:19:17.878Z,6.08
2023-02-24T06:22:10.958Z,6.10
2023-02-24T06:24:38.834Z,6.11
2023-02-24T06:27:16.926Z,6.11
2023-02-24T06:29:51.876Z,6.13
2023-02-24T06:32:20.496Z,6.15
2023-02-24T06:34:47.389Z,6.15
2023-02-24T06:37:15.624Z,6.16
2023-02-24T06:39:44.205Z,6.16
2023-02-24T06:42:12.036Z,6.17
2023-02-24T06:44:40.995Z,6.19
2023-02-24T06:47:12.676Z,6.19
2023-02-24T06:49:41.071Z,6.20
2023-02-24T06:52:17.730Z,6.20
2023-02-24T06:54:47.768Z,6.21
2023-02-24T06:57:14.899Z,6.20
2023-02-24T06:59:45.688Z,6.21
2023-02-24T07:02:12.274Z,6.22
2023-02-24T07:04:45.180Z,6.22
2023-02-24T07:07:16.603Z,6.23
2023-02-24T07:09:44.622Z,6.24
2023-02-24T07:12:22.611Z,6.25
2023-02-24T07:14:49.968Z,6.27
2023-02-24T07:17:18.399Z,6.29
2023-02-24T07:19:47.608Z,6.29
2023-02-24T07:22:16.289Z,6.29
2023-02-24T07:24:47.245Z,6.30
2023-02-24T07:27:21.412Z,6.31
2023-02-24T09:28:47.991Z,6.55
2023-02-24T09:31:18.420Z,6.53
2023-02-24T09:33:50.451Z,6.50
2023-02-24T09:36:28.313Z,6.47
2023-02-24T09:55:16.198Z,6.31
2023-02-24T09:58:08.470Z,6.28
2023-02-24T10:00:43.287Z,6.22
2023-02-24T10:03:24.224Z,6.22
2023-02-24T10:06:11.382Z,6.24
2023-02-24T10:08:42.050Z,6.24
2023-02-24T10:11:11.413Z,6.25
2023-02-24T10:13:49.124Z,6.26
2023-02-24T10:16:24.366Z,6.26
2023-02-24T10:19:17.320Z,6.16
2023-02-24T10:22:08.808Z,6.21
2023-02-24T10:24:47.089Z,6.23
2023-02-24T10:27:23.206Z,6.24
2023-02-24T10:30:18.999Z,6.26
2023-02-24T10:32:52.568Z,6.26
2023-02-24T10:35:25.196Z,6.28
2023-02-24T10:37:52.813Z,6.29
2023-02-24T10:40:42.856Z,6.28
2023-02-24T10:43:10.174Z,6.24
2023-02-24T10:45:44.422Z,6.25
2023-02-24T10:48:41.319Z,6.27
2023-02-24T11:33:41.947Z,6.33
2023-02-24T11:36:19.841Z,6.27
2023-02-24T11:39:15.452Z,6.30
2023-02-24T11:41:46.858Z,6.33
2023-02-24T11:44:30.113Z,6.37
2023-02-24T11:47:17.777Z,6.38
2023-02-24T11:49:52.679Z,6.38
2023-02-24T11:52:33.278Z,6.38
2023-02-24T11:55:04.806Z,6.38
2023-02-24T11:57:41.471Z,6.40
2023-02-24T12:00:19.478Z,6.41
2023-02-24T12:03:17.669Z,6.42
2023-02-24T12:05:49.605Z,6.44
2023-02-24T12:08:34.585Z,6.44
2023-02-24T12:11:13.381Z,6.46
2023-02-24T12:14:04.293Z,6.50
2023-02-24T12:16:39.830Z,6.50
2023-02-24T12:19:27.435Z,6.52
2023-02-24T12:22:05.494Z,6.54
2023-02-24T12:24:35.854Z,6.55
2023-02-24T12:27:14.885Z,6.57
2023-02-24T12:30:05.676Z,6.55
2023-02-24T12:32:59.461Z,6.61
2023-02-24T12:35:44.116Z,6.71
2023-02-24T12:38:40.533Z,6.78
2023-02-24T12:41:54.973Z,6.77
2023-02-24T12:44:50.691Z,6.79
2023-02-24T12:47:31.829Z,6.82
2023-02-24T12:50:11.800Z,6.84
2023-02-24T12:53:07.582Z,6.86
2023-02-24T12:55:46.018Z,6.84
2023-02-24T12:58:20.116Z,6.84
2023-02-24T13:01:11.574Z,6.83
2023-02-24T13:04:06.263Z,6.84
2023-02-24T13:06:55.434Z,6.86
2023-02-24T13:45:34.373Z,6.71
2023-02-24T13:48:26.111Z,6.69
2023-02-24T13:51:07.865Z,6.69
2023-02-24T13:53:58.122Z,6.70
2023-02-24T13:56:49.452Z,6.70
2023-02-24T14:00:01.197Z,6.69
2023-02-24T14:13:29.355Z,6.61
2023-02-24T14:15:58.197Z,6.63
2023-02-24T14:18:27.276Z,6.63
2023-02-24T14:20:56.308Z,6.59
2023-02-24T14:23:26.945Z,6.58
2023-02-24T14:25:56.729Z,6.58
2023-02-24T14:28:30.370Z,6.57
2023-02-24T14:31:00.107Z,6.57
2023-02-24T14:33:33.615Z,6.56
2023-02-24T14:36:01.232Z,6.57
2023-02-24T14:38:39.541Z,6.55
2023-02-24T14:41:35.969Z,6.50
2023-02-24T14:44:41.025Z,6.49
2023-02-24T14:47:13.617Z,6.46
2023-02-24T14:49:51.201Z,6.45
2023-02-24T14:52:39.007Z,6.44
2023-02-24T14:55:25.363Z,6.41
2023-02-24T14:57:57.833Z,6.41
2023-02-24T15:00:42.730Z,6.42
2023-02-24T15:03:23.077Z,6.45
2023-02-24T15:05:53.998Z,6.45
2023-02-24T15:08:43.426Z,6.50
2023-02-24T15:11:20.680Z,6.49
2023-02-24T15:13:54.402Z,6.50
2023-02-24T15:16:26.569Z,6.50
2023-02-24T15:18:58.449Z,6.50
2023-02-24T15:21:32.825Z,6.52
2023-02-24T15:24:30.352Z,6.53
2023-02-24T15:27:01.873Z,6.56
2023-02-24T15:29:31.601Z,6.56
2023-02-24T15:32:00.267Z,6.56
2023-02-24T15:34:34.436Z,6.57
2023-02-24T15:37:22.659Z,6.54
2023-02-24T15:39:51.809Z,6.53
2023-02-24T15:42:27.727Z,6.51
2023-02-24T15:45:01.195Z,6.51
2023-02-24T15:47:43.178Z,6.49
2023-02-24T15:50:11.627Z,6.48
2023-02-24T15:52:44.269Z,6.46
2023-02-24T15:55:21.258Z,6.44
2023-02-24T15:57:56.976Z,6.41
2023-02-24T16:00:24.104Z,6.39
2023-02-24T16:02:50.514Z,6.41
2023-02-24T16:05:22.728Z,6.43
2023-02-24T16:07:54.085Z,6.45
2023-02-24T16:10:27.582Z,6.44
2023-02-24T16:13:00.180Z,6.42
2023-02-24T16:15:30.218Z,6.45
2023-02-24T16:17:57.455Z,6.45
2023-02-24T16:20:26.794Z,6.45
2023-02-24T16:23:04.978Z,6.44
2023-02-24T16:25:41.716Z,6.40
2023-02-24T16:28:16.904Z,6.39
2023-02-24T16:30:45.958Z,6.41
2023-02-24T16:33:17.044Z,6.42
2023-02-24T16:35:45.027Z,6.45
2023-02-24T16:38:18.821Z,6.43
2023-02-24T16:40:47.561Z,6.40
2023-02-24T16:43:16.684Z,6.38
2023-02-24T16:45:45.354Z,6.36
2023-02-24T16:48:23.750Z,6.33
2023-02-24T16:50:53.010Z,6.33
2023-02-24T16:53:24.833Z,6.31
2023-02-24T16:55:51.932Z,6.31
2023-02-24T16:58:19.164Z,6.32
2023-02-24T17:00:49.137Z,6.32
2023-02-24T17:03:20.066Z,6.32
2023-02-24T17:05:47.118Z,6.34
2023-02-24T17:08:15.297Z,6.32
2023-02-24T17:10:43.210Z,6.29
2023-02-24T17:13:15.904Z,6.28
2023-02-24T17:15:42.257Z,6.23
2023-02-24T17:18:11.813Z,6.17
2023-02-24T17:20:39.889Z,6.11
2023-02-24T17:23:06.697Z,6.06
2023-02-24T17:25:33.269Z,6.04
2023-02-24T17:28:00.410Z,6.02
2023-02-24T17:30:33.126Z,6.01
2023-02-24T17:33:00.927Z,6.00
2023-02-24T17:35:29.997Z,5.99
2023-02-24T17:37:56.552Z,5.97
2023-02-24T17:40:23.544Z,5.96
2023-02-24T17:42:50.704Z,5.95
2023-02-24T17:45:20.278Z,5.91
2023-02-24T17:47:46.863Z,5.89
2023-02-24T17:50:13.757Z,5.88
2023-02-24T17:52:43.867Z,5.87
2023-02-24T17:55:12.696Z,5.85
2023-02-24T17:57:42.608Z,5.84
2023-02-24T18:00:12.453Z,5.85
2023-02-24T18:02:39.630Z,5.85
2023-02-24T18:05:11.242Z,5.85
2023-02-24T18:07:37.783Z,5.83
2023-02-24T18:10:05.285Z,5.84
2023-02-24T18:12:31.990Z,5.85
2023-02-24T18:15:08.235Z,5.84
2023-02-24T18:17:36.753Z,5.85
2023-02-24T18:20:05.056Z,5.85
2023-02-24T18:22:31.561Z,5.85
2023-02-24T18:24:58.742Z,5.85
2023-02-24T18:27:25.316Z,5.84
2023-02-24T18:29:53.048Z,5.84
2023-02-24T18:32:22.832Z,5.84
2023-02-24T18:34:52.199Z,5.85
2023-02-24T18:37:19.526Z,5.83
2023-02-24T18:39:46.175Z,5.82
2023-02-24T18:42:12.723Z,5.82
2023-02-24T18:44:39.413Z,5.80
2023-02-24T18:47:08.819Z,5.78
2023-02-24T18:49:36.632Z,5.77
2023-02-24T18:52:04.605Z,5.77
2023-02-24T18:54:33.141Z,5.75
2023-02-24T18:56:59.698Z,5.73
2023-02-24T18:59:26.206Z,5.73
2023-02-24T19:01:53.578Z,5.73
2023-02-24T19:04:22.750Z,5.70
2023-02-24T19:06:51.722Z,5.68
2023-02-24T19:09:23.257Z,5.67
2023-02-24T19:11:51.401Z,5.64
2023-02-24T19:14:18.008Z,5.63
2023-02-24T19:16:44.939Z,5.61
2023-02-24T19:19:13.506Z,5.61
2023-02-24T19:21:39.966Z,5.60
2023-02-24T19:24:10.410Z,5.59
2023-02-24T19:26:39.281Z,5.59
2023-02-24T19:29:05.704Z,5.57
2023-02-24T19:31:32.970Z,5.58
2023-02-24T19:34:06.199Z,5.56
2023-02-24T19:36:36.476Z,5.55
2023-02-24T19:39:04.355Z,5.56
2023-02-24T19:41:30.858Z,5.55
2023-02-24T19:44:00.346Z,5.57
2023-02-24T19:46:28.329Z,5.55
2023-02-24T19:48:57.248Z,5.55
2023-02-24T19:51:24.613Z,5.55
2023-02-24T19:53:53.863Z,5.54
2023-02-24T19:56:29.165Z,5.54
2023-02-24T19:58:57.473Z,5.54
2023-02-24T20:01:25.050Z,5.54
2023-02-24T20:03:58.363Z,5.55
2023-02-24T20:06:26.354Z,5.55
2023-02-24T20:08:53.975Z,5.55
2023-02-24T20:11:23.994Z,5.56
2023-02-24T20:13:52.378Z,5.57
2023-02-24T20:16:21.912Z,5.59
2023-02-24T20:18:53.110Z,5.61
2023-02-24T20:21:22.421Z,5.61
2023-02-24T20:23:51.859Z,5.62
2023-02-24T20:26:19.597Z,5.60
2023-02-24T20:28:49.797Z,5.59
2023-02-24T20:31:18.839Z,5.58
2023-02-24T20:33:51.588Z,5.55
2023-02-24T20:36:25.925Z,5.45
2023-02-24T20:38:53.667Z,5.42
2023-02-24T20:41:21.247Z,5.38
2023-02-24T20:43:48.359Z,5.38
2023-02-24T20:46:23.306Z,5.34
2023-02-24T20:48:51.633Z,5.26
2023-02-24T20:51:20.868Z,5.25
2023-02-24T20:53:57.445Z,5.25
2023-02-24T20:56:27.771Z,5.25
2023-02-24T20:59:03.360Z,5.25
2023-02-24T21:01:31.252Z,5.21
2023-02-24T21:03:58.358Z,5.15
2023-02-24T21:06:25.845Z,5.16
2023-02-24T21:08:52.912Z,5.16
2023-02-24T21:11:20.313Z,5.19
2023-02-24T21:13:48.393Z,5.21
2023-02-24T21:16:16.584Z,5.22
2023-02-24T21:18:47.541Z,5.20
2023-02-24T21:21:15.433Z,5.18
2023-02-24T21:23:46.833Z,5.18
2023-02-24T21:26:14.080Z,5.18
2023-02-24T21:28:43.540Z,5.19
2023-02-24T21:31:16.080Z,5.17
2023-02-24T21:33:43.102Z,5.17
2023-02-24T21:36:14.040Z,5.17
2023-02-24T21:38:47.594Z,5.17
2023-02-24T21:41:20.776Z,5.18
2023-02-24T21:43:51.819Z,5.19
2023-02-24T21:46:18.679Z,5.19
2023-02-24T21:48:45.325Z,5.19
2023-02-24T21:51:13.236Z,5.18
2023-02-24T21:53:43.037Z,5.16
2023-02-24T21:56:15.787Z,5.15
2023-02-24T21:58:58.304Z,5.16
2023-02-24T22:04:59.940Z,5.16
2023-02-24T22:07:44.438Z,5.18
2023-02-24T22:10:24.221Z,5.17
2023-02-24T22:12:55.391Z,5.15
2023-02-24T22:15:22.225Z,5.14
2023-02-24T22:20:37.389Z,5.12
2023-02-24T22:23:03.778Z,5.12
2023-02-24T22:25:30.531Z,5.11
2023-02-24T22:27:56.981Z,5.09
2023-02-24T22:30:23.646Z,5.07
2023-02-24T22:32:50.245Z,5.07
2023-02-24T22:35:17.011Z,5.07
2023-02-24T22:37:43.674Z,5.05
2023-02-24T22:40:10.775Z,5.07
2023-02-24T22:42:37.289Z,5.07
2023-02-24T22:45:04.388Z,5.04
2023-02-24T22:47:30.914Z,5.04
2023-02-24T22:49:57.421Z,5.02
2023-02-24T22:52:25.697Z,5.02
2023-02-24T22:54:52.217Z,5.02
2023-02-24T22:57:18.807Z,5.02
2023-02-24T22:59:45.654Z,5.01
2023-02-24T23:02:12.259Z,4.99
2023-02-24T23:04:38.776Z,4.97
2023-02-24T23:07:05.396Z,4.96
2023-02-24T23:09:32.096Z,4.95
2023-02-24T23:11:58.668Z,4.94
2023-02-24T23:14:26.160Z,4.94
2023-02-24T23:16:54.915Z,4.92
2023-02-24T23:19:22.394Z,4.89
2023-02-24T23:21:52.521Z,4.89
2023-02-24T23:24:20.966Z,4.88
2023-02-24T23:26:53.363Z,4.88
2023-02-24T23:29:21.394Z,4.85
2023-02-24T23:31:48.084Z,4.85
2023-02-24T23:34:18.238Z,4.84
2023-02-24T23:36:46.300Z,4.85
2023-02-24T23:39:15.050Z,4.83
2023-02-24T23:41:41.781Z,4.82
2023-02-24T23:44:08.235Z,4.80
2023-02-24T23:46:37.307Z,4.81
2023-02-24T23:49:04.562Z,4.82
2023-02-24T23:51:47.192Z,4.80
2023-02-24T23:54:17.754Z,4.81
2023-02-24T23:56:46.896Z,4.81
2023-02-24T23:59:13.978Z,4.82
